createdAt,value
2023-05-19T00:01:17.616Z,94209.53
2023-05-19T00:03:57.702Z,94209.13
2023-05-19T00:06:26.830Z,94219.81
2023-05-19T00:08:59.402Z,94206.00
2023-05-19T00:11:27.768Z,94203.75
2023-05-19T00:13:55.921Z,94203.81
2023-05-19T00:16:23.912Z,94206.47
2023-05-19T00:18:51.689Z,94200.38
2023-05-19T00:21:18.686Z,94200.75
2023-05-19T00:23:45.655Z,94200.66
2023-05-19T00:26:12.761Z,94197.56
2023-05-19T00:28:39.462Z,94201.88
2023-05-19T00:31:06.506Z,94197.56
2023-05-19T00:33:34.037Z,94198.41
2023-05-19T00:36:03.966Z,94195.75
2023-05-19T00:38:32.017Z,94200.03
2023-05-19T00:40:59.802Z,94198.84
2023-05-19T00:43:26.785Z,94202.81
2023-05-19T00:45:53.675Z,94191.03
2023-05-19T00:48:20.892Z,94195.38
2023-05-19T00:50:48.510Z,94196.16
2023-05-19T00:53:18.183Z,94194.59
2023-05-19T00:55:46.270Z,94197.75
2023-05-19T00:58:14.552Z,94188.03
2023-05-19T01:00:42.730Z,94196.63
2023-05-19T01:03:12.777Z,94196.66
2023-05-19T01:05:44.748Z,94184.06
2023-05-19T01:08:11.849Z,94186.13
2023-05-19T01:10:38.517Z,94181.44
2023-05-19T01:13:06.512Z,94179.09
2023-05-19T01:15:55.042Z,94178.78
2023-05-19T01:18:27.774Z,94175.28
2023-05-19T01:21:36.239Z,94186.97
2023-05-19T01:24:35.064Z,94180.34
2023-05-19T01:27:01.629Z,94177.63
2023-05-19T01:29:33.001Z,94173.38
2023-05-19T01:32:00.545Z,94180.06
2023-05-19T01:34:27.677Z,94184.34
2023-05-19T01:36:55.967Z,94176.13
2023-05-19T01:39:24.948Z,94177.66
2023-05-19T01:41:53.633Z,94171.78
2023-05-19T01:44:22.165Z,94167.16
2023-05-19T01:46:49.701Z,94164.84
2023-05-19T01:49:16.499Z,94167.91
2023-05-19T01:51:43.394Z,94162.88
2023-05-19T01:54:10.063Z,94164.13
2023-05-19T01:57:00.700Z,94163.72
2023-05-19T01:59:55.518Z,94157.44
2023-05-19T02:02:35.315Z,94157.06
2023-05-19T02:05:13.501Z,94154.69
2023-05-19T02:07:51.010Z,94151.19
2023-05-19T02:10:24.214Z,94157.03
2023-05-19T02:12:54.105Z,94165.69
2023-05-19T02:15:27.992Z,94165.31
2023-05-19T02:17:55.789Z,94164.16
2023-05-19T02:20:22.562Z,94158.25
2023-05-19T02:22:49.298Z,94168.81
2023-05-19T02:25:16.068Z,94163.31
2023-05-19T02:27:42.783Z,94167.59
2023-05-19T02:30:10.242Z,94148.84
2023-05-19T02:32:37.273Z,94163.31
2023-05-19T02:35:04.847Z,94156.28
2023-05-19T02:37:32.518Z,94164.13
2023-05-19T02:39:59.364Z,94163.34
2023-05-19T02:42:26.140Z,94159.03
2023-05-19T02:44:54.800Z,94159.78
2023-05-19T02:47:21.557Z,94163.72
2023-05-19T02:49:48.318Z,94161.00
2023-05-19T02:52:14.985Z,94159.09
2023-05-19T02:54:41.714Z,94155.19
2023-05-19T02:57:08.428Z,94166.50
2023-05-19T02:59:35.346Z,94162.63
2023-05-19T03:02:02.977Z,94165.34
2023-05-19T03:04:29.939Z,94164.56
2023-05-19T03:06:57.810Z,94153.25
2023-05-19T03:09:24.616Z,94154.84
2023-05-19T03:11:51.533Z,94156.38
2023-05-19T03:14:18.801Z,94158.38
2023-05-19T03:16:45.879Z,94153.69
2023-05-19T03:19:12.816Z,94163.03
2023-05-19T03:21:39.503Z,94158.34
2023-05-19T03:24:07.130Z,94155.25
2023-05-19T03:26:33.804Z,94151.72
2023-05-19T03:29:00.967Z,94156.84
2023-05-19T03:31:27.760Z,94152.13
2023-05-19T03:33:54.466Z,94150.19
2023-05-19T03:36:22.157Z,94154.50
2023-05-19T03:38:48.983Z,94156.44
2023-05-19T03:41:16.009Z,94149.03
2023-05-19T03:43:42.737Z,94161.09
2023-05-19T03:46:09.468Z,94149.81
2023-05-19T03:48:36.334Z,94157.63
2023-05-19T03:51:04.385Z,94156.03
2023-05-19T03:53:31.088Z,94154.88
2023-05-19T03:55:57.755Z,94154.09
2023-05-19T03:58:24.409Z,94155.28
2023-05-19T04:00:51.088Z,94152.53
2023-05-19T04:03:18.925Z,94156.06
2023-05-19T04:05:45.696Z,94168.16
2023-05-19T04:08:12.398Z,94162.69
2023-05-19T04:10:39.110Z,94161.09
2023-05-19T04:13:05.862Z,94166.97
2023-05-19T04:15:32.566Z,94165.38
2023-05-19T04:17:59.280Z,94161.09
2023-05-19T04:20:25.947Z,94159.53
2023-05-19T04:22:52.604Z,94161.84
2023-05-19T04:25:20.184Z,94154.06
2023-05-19T04:27:48.268Z,94152.13
2023-05-19T04:30:22.023Z,94154.44
2023-05-19T04:32:51.628Z,94152.84
2023-05-19T04:35:18.398Z,94158.66
2023-05-19T04:37:48.476Z,94145.78
2023-05-19T04:40:15.961Z,94151.50
2023-05-19T04:42:43.132Z,94151.16
2023-05-19T04:45:10.370Z,94149.97
2023-05-19T04:47:38.174Z,94152.25
2023-05-19T04:50:05.734Z,94151.31
2023-05-19T04:52:32.444Z,94145.47
2023-05-19T04:54:59.180Z,94148.97
2023-05-19T04:57:26.015Z,94153.84
2023-05-19T04:59:53.241Z,94153.91
2023-05-19T05:02:20.236Z,94147.13
2023-05-19T05:04:47.023Z,94153.81
2023-05-19T05:07:13.676Z,94151.97
2023-05-19T05:09:40.514Z,94160.66
2023-05-19T05:12:07.999Z,94148.44
2023-05-19T05:14:35.022Z,94148.78
2023-05-19T05:17:02.509Z,94150.75
2023-05-19T05:19:29.552Z,94159.03
2023-05-19T05:21:56.575Z,94147.06
2023-05-19T05:24:23.516Z,94150.69
2023-05-19T05:26:50.511Z,94152.78
2023-05-19T05:29:17.196Z,94154.03
2023-05-19T05:31:43.890Z,94153.91
2023-05-19T05:34:10.821Z,94155.94
2023-05-19T05:36:37.472Z,94153.41
2023-05-19T05:39:05.579Z,94147.34
2023-05-19T05:41:35.449Z,94144.69
2023-05-19T05:44:03.180Z,94144.28
2023-05-19T05:46:30.362Z,94134.00
2023-05-19T05:48:57.621Z,94147.78
2023-05-19T05:51:24.645Z,94139.66
2023-05-19T05:53:55.360Z,94139.09
2023-05-19T05:56:22.403Z,94137.81
2023-05-19T05:58:49.701Z,94133.06
2023-05-19T06:01:17.736Z,94132.59
2023-05-19T06:03:45.135Z,94137.56
2023-05-19T06:06:13.910Z,94133.44
2023-05-19T06:08:40.883Z,94131.72
2023-05-19T06:11:10.552Z,94133.25
2023-05-19T06:13:38.645Z,94122.22
2023-05-19T06:16:06.136Z,94139.59
2023-05-19T06:18:33.013Z,94126.25
2023-05-19T06:20:59.723Z,94130.75
2023-05-19T06:23:29.004Z,94124.69
2023-05-19T06:25:56.443Z,94136.06
2023-05-19T06:28:23.198Z,94135.72
2023-05-19T06:30:50.005Z,94137.63
2023-05-19T06:33:16.759Z,94129.53
2023-05-19T06:35:43.490Z,94133.00
2023-05-19T06:38:10.476Z,94144.09
2023-05-19T06:40:37.222Z,94159.06
2023-05-19T06:43:04.828Z,94146.19
2023-05-19T06:45:31.929Z,94143.88
2023-05-19T06:47:58.912Z,94138.00
2023-05-19T06:50:25.698Z,94145.56
2023-05-19T06:52:52.829Z,94143.94
2023-05-19T06:55:19.793Z,94135.09
2023-05-19T06:57:46.510Z,94139.38
2023-05-19T07:00:16.730Z,94140.06
2023-05-19T07:02:45.101Z,94142.63
2023-05-19T07:05:11.886Z,94143.34
2023-05-19T07:07:38.556Z,94142.44
2023-05-19T07:10:05.889Z,94151.16
2023-05-19T07:12:32.624Z,94145.66
2023-05-19T07:14:59.348Z,94147.28
2023-05-19T07:17:26.258Z,94151.78
2023-05-19T07:19:53.015Z,94154.38
2023-05-19T07:22:19.757Z,94151.47
2023-05-19T07:24:46.457Z,94145.63
2023-05-19T07:27:13.162Z,94133.28
2023-05-19T07:29:40.020Z,94148.31
2023-05-19T07:32:07.087Z,94149.75
2023-05-19T07:34:33.850Z,94144.22
2023-05-19T07:37:00.679Z,94136.44
2023-05-19T07:39:29.723Z,94144.75
2023-05-19T07:41:56.621Z,94150.66
2023-05-19T07:44:23.486Z,94137.72
2023-05-19T07:46:50.193Z,94148.09
2023-05-19T07:49:16.861Z,94140.25
2023-05-19T07:51:43.525Z,94140.47
2023-05-19T07:54:10.368Z,94147.72
2023-05-19T07:56:37.226Z,94151.38
2023-05-19T07:59:04.561Z,94148.56
2023-05-19T08:01:32.377Z,94143.34
2023-05-19T08:03:59.169Z,94143.25
2023-05-19T08:06:26.039Z,94142.56
2023-05-19T08:08:54.281Z,94138.97
2023-05-19T08:11:21.616Z,94126.34
2023-05-19T08:13:49.327Z,94130.59
2023-05-19T08:16:16.339Z,94117.41
2023-05-19T08:18:43.388Z,94113.00
2023-05-19T08:21:10.218Z,94114.16
2023-05-19T08:23:37.507Z,94126.63
2023-05-19T08:26:04.765Z,94125.53
2023-05-19T08:28:32.058Z,94114.69
2023-05-19T08:30:58.779Z,94122.97
2023-05-19T08:33:25.634Z,94118.63
2023-05-19T08:35:52.355Z,94111.81
2023-05-19T08:38:19.090Z,94109.56
2023-05-19T08:40:47.466Z,94105.91
2023-05-19T08:43:14.616Z,94110.72
2023-05-19T08:45:48.315Z,94106.06
2023-05-19T08:48:17.103Z,94098.31
2023-05-19T08:51:02.212Z,94104.91
2023-05-19T08:53:37.700Z,94109.56
2023-05-19T08:56:18.228Z,94110.28
2023-05-19T08:58:45.991Z,94092.59
2023-05-19T09:01:16.916Z,94111.03
2023-05-19T09:03:45.067Z,94097.63
2023-05-19T09:06:14.898Z,94098.06
2023-05-19T09:08:42.977Z,94080.06
2023-05-19T09:11:10.822Z,94090.88
2023-05-19T09:13:37.807Z,94105.22
2023-05-19T09:16:04.940Z,94095.34
2023-05-19T09:18:31.924Z,94090.75
2023-05-19T09:21:05.049Z,94083.56
2023-05-19T09:23:34.086Z,94083.53
2023-05-19T09:26:07.282Z,94089.19
2023-05-19T09:28:36.403Z,94102.34
2023-05-19T09:31:08.493Z,94101.28
2023-05-19T09:33:36.386Z,94091.03
2023-05-19T09:36:06.145Z,94098.97
2023-05-19T09:38:33.129Z,94096.69
2023-05-19T09:41:00.794Z,94100.38
2023-05-19T09:43:32.874Z,94095.44
2023-05-19T09:46:06.837Z,94096.06
2023-05-19T09:48:37.435Z,94098.88
2023-05-19T09:51:06.290Z,94094.56
2023-05-19T09:53:34.361Z,94098.44
2023-05-19T09:56:02.268Z,94088.16
2023-05-19T09:58:36.525Z,94084.50
2023-05-19T10:01:04.616Z,94090.28
2023-05-19T10:03:33.009Z,94083.03
2023-05-19T10:06:01.989Z,94086.31
2023-05-19T10:08:30.595Z,94082.66
2023-05-19T10:10:57.790Z,94079.59
2023-05-19T10:13:25.565Z,94091.91
2023-05-19T10:18:23.092Z,94090.78
2023-05-19T10:20:51.124Z,94087.78
2023-05-19T10:23:18.677Z,94088.97
2023-05-19T10:25:46.447Z,94084.81
2023-05-19T10:28:16.298Z,94077.31
2023-05-19T10:30:50.860Z,94081.63
2023-05-19T10:33:23.199Z,94076.38
2023-05-19T10:36:10.953Z,94077.63
2023-05-19T10:38:52.640Z,94084.13
2023-05-19T10:41:31.824Z,94087.91
2023-05-19T10:44:28.099Z,94078.41
2023-05-19T10:46:56.814Z,94084.31
2023-05-19T10:49:24.353Z,94081.25
2023-05-19T10:51:58.430Z,94079.94
2023-05-19T10:54:41.177Z,94091.03
2023-05-19T10:57:08.735Z,94099.38
2023-05-19T10:59:39.910Z,94098.06
2023-05-19T11:02:08.695Z,94094.41
2023-05-19T11:04:52.001Z,94097.06
2023-05-19T11:07:24.618Z,94083.25
2023-05-19T11:09:54.546Z,94090.47
2023-05-19T11:12:25.561Z,94090.41
2023-05-19T11:14:54.301Z,94087.78
2023-05-19T11:17:24.288Z,94101.59
2023-05-19T11:19:55.289Z,94100.22
2023-05-19T11:22:29.485Z,94088.25
2023-05-19T11:24:57.260Z,94100.56
2023-05-19T11:27:32.753Z,94092.50
2023-05-19T11:30:02.123Z,94103.56
2023-05-19T11:32:30.888Z,94096.66
2023-05-19T11:34:58.084Z,94101.25
2023-05-19T11:37:25.121Z,94105.03
2023-05-19T11:39:52.939Z,94109.78
2023-05-19T11:42:19.710Z,94101.28
2023-05-19T11:44:46.817Z,94105.44
2023-05-19T11:47:14.895Z,94102.66
2023-05-19T11:49:45.997Z,94096.00
2023-05-19T11:52:13.144Z,94092.34
2023-05-19T11:54:41.925Z,94093.91
2023-05-19T11:57:14.094Z,94103.28
2023-05-19T11:59:45.413Z,94112.00
2023-05-19T12:02:24.936Z,94104.28
2023-05-19T12:04:52.202Z,94095.94
2023-05-19T12:07:22.796Z,94096.53
2023-05-19T12:09:50.967Z,94098.88
2023-05-19T12:12:19.598Z,94098.94
2023-05-19T12:14:47.275Z,94097.06
2023-05-19T12:17:19.488Z,94104.28
2023-05-19T12:19:48.612Z,94095.41
2023-05-19T12:22:17.244Z,94096.75
2023-05-19T12:24:45.115Z,94095.91
2023-05-19T12:27:15.421Z,94105.25
2023-05-19T12:29:42.205Z,94105.41
2023-05-19T12:32:09.880Z,94116.78
2023-05-19T12:34:38.226Z,94109.22
2023-05-19T12:37:05.972Z,94123.56
2023-05-19T12:39:33.748Z,94108.34
2023-05-19T12:42:04.544Z,94116.38
2023-05-19T12:44:31.588Z,94112.13
2023-05-19T12:46:59.553Z,94109.91
2023-05-19T12:49:26.349Z,94106.88
2023-05-19T12:51:54.031Z,94099.69
2023-05-19T12:54:22.075Z,94105.59
2023-05-19T12:56:52.857Z,94099.38
2023-05-19T12:59:37.451Z,94101.81
2023-05-19T13:02:06.350Z,94103.75
2023-05-19T13:04:33.215Z,94102.09
2023-05-19T13:07:00.032Z,94097.59
2023-05-19T13:09:27.903Z,94097.09
2023-05-19T13:11:54.873Z,94099.91
2023-05-19T13:14:21.981Z,94089.19
2023-05-19T13:16:48.744Z,94101.63
2023-05-19T13:19:25.247Z,94101.16
2023-05-19T13:21:52.900Z,94099.50
2023-05-19T13:24:19.620Z,94094.47
2023-05-19T13:26:46.503Z,94096.63
2023-05-19T13:29:13.195Z,94084.94
2023-05-19T13:31:39.957Z,94082.75
2023-05-19T13:34:07.019Z,94080.69
2023-05-19T13:36:34.961Z,94089.34
2023-05-19T13:39:01.764Z,94087.16
2023-05-19T13:41:29.503Z,94080.91
2023-05-19T13:44:01.097Z,94082.66
2023-05-19T13:46:40.815Z,94077.28
2023-05-19T13:49:11.243Z,94079.81
2023-05-19T13:51:42.610Z,94077.91
2023-05-19T13:54:09.968Z,94080.19
2023-05-19T13:56:36.857Z,94065.78
2023-05-19T13:59:04.152Z,94076.63
2023-05-19T14:01:31.012Z,94073.63
2023-05-19T14:03:57.899Z,94085.00
2023-05-19T14:06:24.818Z,94080.66
2023-05-19T14:08:51.559Z,94079.97
2023-05-19T14:11:22.595Z,94075.16
2023-05-19T14:13:53.146Z,94075.03
2023-05-19T14:16:23.106Z,94072.06
2023-05-19T14:18:49.976Z,94079.16
2023-05-19T14:21:16.819Z,94082.69
2023-05-19T14:23:43.629Z,94087.06
2023-05-19T14:26:10.349Z,94079.47
2023-05-19T14:28:37.121Z,94088.34
2023-05-19T14:31:03.981Z,94089.16
2023-05-19T14:33:34.887Z,94082.66
2023-05-19T14:36:02.354Z,94086.78
2023-05-19T14:38:29.549Z,94087.38
2023-05-19T14:40:56.659Z,94078.44
2023-05-19T14:43:23.567Z,94082.06
2023-05-19T14:45:50.330Z,94092.38
2023-05-19T14:48:17.835Z,94075.72
2023-05-19T14:50:44.847Z,94081.50
2023-05-19T14:53:11.768Z,94086.19
2023-05-19T14:55:38.478Z,94085.34
2023-05-19T14:58:15.982Z,94085.75
2023-05-19T15:00:52.342Z,94085.16
2023-05-19T15:03:19.647Z,94085.69
2023-05-19T15:05:46.435Z,94087.44
2023-05-19T15:08:13.339Z,94079.88
2023-05-19T15:10:40.077Z,94083.03
2023-05-19T15:13:06.798Z,94085.28
2023-05-19T15:15:33.523Z,94081.75
2023-05-19T15:18:00.414Z,94080.53
2023-05-19T15:20:29.359Z,94079.91
2023-05-19T15:22:56.272Z,94079.63
2023-05-19T15:25:22.992Z,94084.25
2023-05-19T15:27:49.896Z,94083.97
2023-05-19T15:30:16.689Z,94087.69
2023-05-19T15:32:43.430Z,94077.56
2023-05-19T15:35:10.270Z,94073.34
2023-05-19T15:37:36.957Z,94076.63
2023-05-19T15:40:04.512Z,94077.97
2023-05-19T15:42:31.256Z,94077.50
2023-05-19T15:44:57.967Z,94072.09
2023-05-19T15:47:24.681Z,94073.41
2023-05-19T15:49:51.526Z,94079.06
2023-05-19T15:52:18.264Z,94071.56
2023-05-19T15:54:45.055Z,94074.88
2023-05-19T15:57:13.566Z,94076.69
2023-05-19T15:59:40.300Z,94072.94
2023-05-19T16:02:07.643Z,94076.94
2023-05-19T16:04:34.440Z,94084.91
2023-05-19T16:07:01.099Z,94083.22
2023-05-19T16:09:27.760Z,94082.00
2023-05-19T16:11:54.498Z,94073.34
2023-05-19T16:14:21.109Z,94069.53
2023-05-19T16:16:48.437Z,94071.25
2023-05-19T16:19:15.232Z,94076.81
2023-05-19T16:21:41.975Z,94076.06
2023-05-19T16:24:08.713Z,94078.56
2023-05-19T16:26:35.385Z,94069.06
2023-05-19T16:29:02.201Z,94066.53
2023-05-19T16:31:29.066Z,94071.97
2023-05-19T16:33:55.723Z,94067.25
2023-05-19T16:36:25.193Z,94056.81
2023-05-19T16:38:51.827Z,94052.19
2023-05-19T16:41:18.590Z,94057.63
2023-05-19T16:43:45.354Z,94053.97
2023-05-19T16:46:12.414Z,94055.25
2023-05-19T16:48:39.198Z,94065.03
2023-05-19T16:51:06.399Z,94056.44
2023-05-19T16:53:33.140Z,94059.19
2023-05-19T16:55:59.842Z,94057.94
2023-05-19T16:58:28.029Z,94058.81
2023-05-19T17:00:56.196Z,94063.13
2023-05-19T17:03:23.001Z,94062.66
2023-05-19T17:05:49.696Z,94059.81
2023-05-19T17:08:16.615Z,94060.25
2023-05-19T17:10:44.826Z,94063.13
2023-05-19T17:13:11.738Z,94070.88
2023-05-19T17:15:39.327Z,94067.22
2023-05-19T17:18:07.052Z,94065.50
2023-05-19T17:20:33.855Z,94055.81
2023-05-19T17:23:00.656Z,94061.53
2023-05-19T17:25:27.394Z,94062.22
2023-05-19T17:27:55.659Z,94064.63
2023-05-19T17:30:22.452Z,94056.09
2023-05-19T17:32:49.407Z,94064.69
2023-05-19T17:35:16.581Z,94061.69
2023-05-19T17:37:43.251Z,94050.66
2023-05-19T17:40:10.807Z,94050.81
2023-05-19T17:42:37.483Z,94057.78
2023-05-19T17:45:07.449Z,94057.34
2023-05-19T17:47:34.493Z,94058.63
2023-05-19T17:50:01.217Z,94053.78
2023-05-19T17:52:28.233Z,94043.41
2023-05-19T17:54:55.201Z,94055.38
2023-05-19T17:57:25.309Z,94055.25
2023-05-19T17:59:52.377Z,94046.34
2023-05-19T18:02:19.746Z,94048.34
2023-05-19T18:04:46.644Z,94054.19
2023-05-19T18:07:14.280Z,94053.19
2023-05-19T18:09:45.507Z,94050.59
2023-05-19T18:12:12.611Z,94047.78
2023-05-19T18:14:39.745Z,94052.13
2023-05-19T18:17:06.538Z,94054.41
2023-05-19T18:19:33.314Z,94056.28
2023-05-19T18:22:00.144Z,94053.06
2023-05-19T18:24:27.058Z,94044.72
2023-05-19T18:26:53.788Z,94044.47
2023-05-19T18:29:20.505Z,94045.28
2023-05-19T18:31:47.289Z,94046.16
2023-05-19T18:34:14.265Z,94051.19
2023-05-19T18:36:41.277Z,94045.34
2023-05-19T18:39:08.036Z,94051.06
2023-05-19T18:41:34.761Z,94048.63
2023-05-19T18:44:01.434Z,94047.78
2023-05-19T18:46:28.177Z,94046.03
2023-05-19T18:48:54.966Z,94040.31
2023-05-19T18:51:22.262Z,94049.69
2023-05-19T18:53:50.075Z,94050.97
2023-05-19T18:56:27.530Z,94051.91
2023-05-19T18:58:54.830Z,94050.84
2023-05-19T19:01:21.686Z,94049.16
2023-05-19T19:03:49.352Z,94047.84
2023-05-19T19:06:23.395Z,94048.56
2023-05-19T19:08:50.569Z,94056.09
2023-05-19T19:11:17.270Z,94056.09
2023-05-19T19:13:44.066Z,94063.50
2023-05-19T19:16:11.079Z,94061.91
2023-05-19T19:18:37.931Z,94066.69
2023-05-19T19:21:05.967Z,94072.13
2023-05-19T19:23:33.029Z,94065.38
2023-05-19T19:26:00.144Z,94062.91
2023-05-19T19:28:26.963Z,94074.69
2023-05-19T19:30:53.734Z,94073.84
2023-05-19T19:33:20.579Z,94074.19
2023-05-19T19:35:47.517Z,94071.72
2023-05-19T19:38:14.318Z,94067.44
2023-05-19T19:40:41.161Z,94063.88
2023-05-19T19:43:07.867Z,94073.31
2023-05-19T19:45:34.899Z,94066.97
2023-05-19T19:48:01.829Z,94067.25
2023-05-19T19:50:28.616Z,94067.44
2023-05-19T19:52:55.432Z,94068.63
2023-05-19T19:55:22.164Z,94068.22
2023-05-19T19:57:51.122Z,94063.38
2023-05-19T20:00:18.558Z,94064.41
2023-05-19T20:03:03.052Z,94064.03
2023-05-19T20:05:31.476Z,94060.56
2023-05-19T20:07:58.302Z,94057.34
2023-05-19T20:10:25.044Z,94066.06
2023-05-19T20:12:52.092Z,94056.47
2023-05-19T20:15:18.862Z,94050.59
2023-05-19T20:17:45.881Z,94052.38
2023-05-19T20:20:13.090Z,94047.25
2023-05-19T20:22:40.025Z,94050.50
2023-05-19T20:25:07.250Z,94055.84
2023-05-19T20:27:33.997Z,94050.72
2023-05-19T20:30:00.746Z,94046.44
2023-05-19T20:32:27.539Z,94050.53
2023-05-19T20:34:54.271Z,94044.19
2023-05-19T20:37:22.168Z,94056.00
2023-05-19T20:39:49.054Z,94045.41
2023-05-19T20:42:16.064Z,94042.31
2023-05-19T20:44:42.875Z,94041.03
2023-05-19T20:47:09.601Z,94044.28
2023-05-19T20:49:36.425Z,94050.56
2023-05-19T20:52:03.501Z,94047.31
2023-05-19T20:54:30.207Z,94044.78
2023-05-19T20:56:57.018Z,94046.75
2023-05-19T20:59:23.720Z,94043.38
2023-05-19T21:01:50.549Z,94045.44
2023-05-19T21:04:17.507Z,94037.22
2023-05-19T21:06:44.319Z,94033.56
2023-05-19T21:09:11.447Z,94035.97
2023-05-19T21:11:38.277Z,94040.91
2023-05-19T21:14:05.106Z,94036.97
2023-05-19T21:16:32.395Z,94027.63
2023-05-19T21:18:59.214Z,94029.97
2023-05-19T21:21:26.407Z,94029.06
2023-05-19T21:23:53.105Z,94019.44
2023-05-19T21:26:19.870Z,94022.41
2023-05-19T21:28:47.050Z,94023.22
2023-05-19T21:31:13.828Z,94021.31
2023-05-19T21:33:40.603Z,94025.88
2023-05-19T21:36:07.673Z,94018.09
2023-05-19T21:38:34.382Z,94016.31
2023-05-19T21:41:01.106Z,94016.94
2023-05-19T21:43:27.828Z,94011.34
2023-05-19T21:45:54.480Z,94011.69
2023-05-19T21:48:21.658Z,94016.91
2023-05-19T21:50:55.279Z,94015.16
2023-05-19T21:53:22.106Z,94011.22
2023-05-19T21:55:48.972Z,94013.28
2023-05-19T21:58:16.114Z,94005.16
2023-05-19T22:00:43.463Z,94011.25
2023-05-19T22:03:10.292Z,94002.25
2023-05-19T22:05:38.257Z,93999.28
2023-05-19T22:08:05.297Z,94008.31
2023-05-19T22:10:32.260Z,94003.19
2023-05-19T22:12:59.353Z,94002.50
2023-05-19T22:15:26.720Z,94001.41
2023-05-19T22:17:53.554Z,93987.25
2023-05-19T22:20:20.503Z,93989.91
2023-05-19T22:22:47.300Z,93989.88
2023-05-19T22:25:14.218Z,93986.53
2023-05-19T22:27:40.864Z,93985.31
2023-05-19T22:30:08.053Z,93970.41
2023-05-19T22:32:35.217Z,93975.72
2023-05-19T22:35:01.973Z,93966.31
2023-05-19T22:37:29.044Z,93971.59
2023-05-19T22:39:56.248Z,93978.56
2023-05-19T22:42:22.941Z,93965.50
2023-05-19T22:44:49.666Z,93971.31
2023-05-19T22:47:16.562Z,93965.03
2023-05-19T22:49:43.468Z,93967.44
2023-05-19T22:52:11.225Z,93958.84
2023-05-19T22:54:38.332Z,93962.28
2023-05-19T22:57:05.523Z,93955.13
2023-05-19T22:59:32.261Z,93956.72
2023-05-19T23:01:59.023Z,93944.72
2023-05-19T23:04:26.109Z,93949.81
2023-05-19T23:06:52.826Z,93945.75
2023-05-19T23:09:19.667Z,93954.66
2023-05-19T23:11:46.345Z,93945.84
2023-05-19T23:14:13.481Z,93948.84
2023-05-19T23:16:40.355Z,93949.16
2023-05-19T23:19:07.309Z,93942.78
2023-05-19T23:21:34.026Z,93938.91
2023-05-19T23:24:01.029Z,93940.50
2023-05-19T23:26:27.783Z,93940.00
2023-05-19T23:28:54.543Z,93947.03
2023-05-19T23:31:21.356Z,93935.53
2023-05-19T23:33:48.081Z,93939.00
2023-05-19T23:36:14.810Z,93934.97
2023-05-19T23:38:41.498Z,93932.19
2023-05-19T23:41:08.347Z,93930.97
2023-05-19T23:43:35.085Z,93934.97
2023-05-19T23:46:01.931Z,93923.06
2023-05-19T23:48:29.429Z,93916.75
2023-05-19T23:50:57.720Z,93922.22
2023-05-19T23:53:25.048Z,93922.72
2023-05-19T23:55:51.798Z,93917.66
2023-05-19T23:58:18.807Z,93916.34
